AirNav   Bose Proflight and A20 aviation headeets
 
 284 users online  

80S Lavina Airport
Lavina, Montana, USA

GOING TO LAVINA?


FAA INFORMATION EFFECTIVE 31 JANUARY 2019

Location

FAA Identifier: 80S
Lat/Long: 46-18-26.2000N / 108-57-17.3000W
46-18.436667N / 108-57.288333W
46.3072778 / -108.9548056
(estimated)
Elevation: 3512 ft. / 1070.5 m (surveyed)
Variation: 15E (1985)
From city: 2 miles NW of LAVINA, MT
Time zone: UTC -7 (UTC -6 during Daylight Saving Time)
Zip code: 59046

Airport Operations

Airport use: Open to the public
Activation date: 10/1964
Control tower: no
ARTCC: SALT LAKE CITY CENTER
FSS: GREAT FALLS FLIGHT SERVICE STATION
NOTAMs facility: GTF (NOTAM-D service available)
Attendance: UNATNDD
Wind indicator: yes
Segmented circle: yes

Airport Communications

CTAF: 122.9

Nearby radio navigation aids

VOR radial/distance  VOR name  Freq  Var
BILr321/32.9BILLINGS VORTAC114.5014E

 
NDB name  Hdg/Dist  Freq  Var  ID
ROUNDUP223/19.436217ERPX .-. .--. -..-
HARLOWTON085/37.124217EHWQ .... .-- --.-

Airport Services

Parking: hangars and tiedowns
Airframe service: NONE
Powerplant service: NONE
Bottled oxygen: NONE
Bulk oxygen: NONE

Runway Information

Runway 7/25

Dimensions: 3460 x 100 ft. / 1055 x 30 m
Surface: turf, in fair condition
VERY MUDDY WHEN WET; ROUGH WITH GOPHER HOLES.
Runway edge markings: 07/25 MKD WITH CONES FULL RY LENGTH.
Gradient: W
RUNWAY 7  RUNWAY 25
Latitude: 46-18.435335N46-18.436798N
Longitude: 108-57.699813W108-56.878188W
Elevation: 3512.0 ft.3488.0 ft.
Gradient: 0.4%0.7% UP
Traffic pattern: leftleft
Runway heading: 075 magnetic, 090 true255 magnetic, 270 true

Airport Ownership and Management from official FAA records

Ownership: Publicly-owned
Owner: MONTANA AERONAUTICS DIVISION
PO BOX 200507
HELENA, MT 59620-0507
Phone 406-444-2506
Manager: TIM CONWAY
BOX 200507
HELENA, MT 59620-0507
Phone 406-444-2506

Airport Operational Statistics

Aircraft based on the field: 1
Single engine airplanes: 1
    
Aircraft operations: avg 31/month *
73% transient general aviation
27% local general aviation
* for 12-month period ending 07 August 2015

Additional Remarks

NO SNOW REMOVAL.

Instrument Procedures

There are no published instrument procedures at 80S.

Some nearby airports with instrument procedures:

KRPX - Roundup Airport (20 nm NE)
KBIL - Billings Logan International Airport (35 nm SE)
6S8 - Laurel Municipal Airport (37 nm S)
KLWT - Lewistown Municipal Airport (49 nm NW)
6S0 - Big Timber Airport (52 nm SW)
 
Loc | Ops | Rwys | IFR | FBO | Links
Com | Nav | Svcs | Stats | Notes
Area around 80S (Lavina Airport)
 
Road maps at: MapQuest Bing Google
 
Aerial photo
No photo
 
Sectional chart

 
Airport distance calculator
Flying to Lavina Airport? Find the distance to fly.

From to 80S

Sunrise and sunset
Times for 23-Feb-2019
 Local
(UTC-7)
 Zulu
(UTC)
Morning civil twilight06:3613:36
Sunrise07:0714:07
Sunset17:5200:52
Evening civil twilight18:2201:22

Current date and time
Zulu (UTC)  23-Feb-2019 10:02:33
Local (UTC-7)  23-Feb-2019 03:02:33
 
METAR
KRPX 
20nm NE 
SuperAWOS
230855Z AUTO 27007KT 10SM M11/M17 A2975
KMVH 
32nm N 
230955Z AUTO 00000KT 10SM CLR M10/M19 A2979 RMK AO2
KBIL 
35nm SE 
230953Z 00000KT 10SM SCT110 M08/M13 A2983 RMK AO2 SLP148 T10831128
TAF
KBIL 
35nm SE 
230525Z 2306/2406 23010KT P6SM SCT080 BKN200 FM231600 24012G20KT P6SM VCSH BKN060 OVC200 FM232100 32015G25KT P6SM -SHSN SCT020 OVC060 FM232300 03015KT 2SM -SN BR BKN025 OVC050
NOTAMs
Click for the latest NOTAMs
NOTAMs are issued by the DoD/FAA and will open in a separate window not controlled by AirNav.

 

 
 

Would you like to see your business listed on this page?

 If your business provides an interesting product or service to pilots, flight crews, aircraft, or users of the Lavina Airport, you should consider listing it here.  To start the listing process, click on the button below
 
Add a business
 

Other Pages about Lavina Airport

Update a link
 
Copyright © AirNav, LLC. All rights reserved. Privacy Policy  Contact